createdAt,value
2019-03-17T00:00:40.789Z,996.32
2019-03-17T00:01:40.779Z,996.31
2019-03-17T00:02:40.773Z,996.22
2019-03-17T00:03:40.758Z,996.23
2019-03-17T00:04:40.752Z,996.24
2019-03-17T00:05:40.750Z,996.26
2019-03-17T00:06:40.741Z,996.17
2019-03-17T00:07:40.731Z,996.24
2019-03-17T00:08:40.719Z,996.21
2019-03-17T00:09:40.715Z,996.13
2019-03-17T00:10:40.710Z,996.20
2019-03-17T00:11:40.705Z,996.14
2019-03-17T00:12:40.698Z,996.18
2019-03-17T00:13:40.693Z,996.13
2019-03-17T00:14:40.681Z,996.11
2019-03-17T00:15:40.667Z,996.05
2019-03-17T00:16:40.660Z,996.13
2019-03-17T00:17:41.977Z,996.07
2019-03-17T00:18:40.646Z,996.05
2019-03-17T00:19:40.647Z,996.00
2019-03-17T00:20:40.635Z,996.03
2019-03-17T00:21:40.625Z,995.93
2019-03-17T00:22:40.618Z,995.92
2019-03-17T00:23:40.613Z,995.93
2019-03-17T00:24:40.607Z,995.88
2019-03-17T00:25:40.597Z,995.85
2019-03-17T00:26:40.587Z,995.96
2019-03-17T00:27:40.578Z,995.89
2019-03-17T00:28:40.567Z,995.95
2019-03-17T00:29:40.562Z,995.92
2019-03-17T00:30:40.556Z,995.90
2019-03-17T00:31:40.551Z,995.91
2019-03-17T00:32:40.542Z,995.95
2019-03-17T00:33:40.537Z,995.92
2019-03-17T00:34:44.396Z,995.91
2019-03-17T00:35:40.518Z,995.85
2019-03-17T00:36:40.510Z,995.84
2019-03-17T00:37:40.508Z,995.85
2019-03-17T00:38:40.501Z,995.77
2019-03-17T00:39:40.488Z,995.77
2019-03-17T00:40:40.480Z,995.79
2019-03-17T00:41:40.468Z,995.86
2019-03-17T00:42:40.463Z,995.78
2019-03-17T00:43:40.459Z,995.77
2019-03-17T00:44:40.456Z,995.79
2019-03-17T00:45:40.444Z,995.76
2019-03-17T00:46:40.437Z,995.68
2019-03-17T00:47:40.424Z,995.74
2019-03-17T00:48:40.414Z,995.58
2019-03-17T00:49:40.411Z,995.72
2019-03-17T00:50:40.408Z,995.70
2019-03-17T00:51:40.500Z,995.66
2019-03-17T00:52:40.396Z,995.76
2019-03-17T00:53:40.381Z,995.74
2019-03-17T00:54:40.373Z,995.73
2019-03-17T00:55:40.430Z,995.66
2019-03-17T00:56:40.360Z,995.63
2019-03-17T00:57:40.353Z,995.69
2019-03-17T00:58:40.345Z,995.62
2019-03-17T00:59:40.331Z,995.64
2019-03-17T01:00:40.323Z,995.54
2019-03-17T01:01:40.316Z,995.50
2019-03-17T01:02:40.313Z,995.57
2019-03-17T01:03:40.306Z,995.58
2019-03-17T01:04:40.302Z,995.58
2019-03-17T01:05:40.293Z,995.55
2019-03-17T01:06:40.285Z,995.55
2019-03-17T01:07:40.273Z,995.47
2019-03-17T01:08:40.265Z,995.56
2019-03-17T01:09:40.262Z,995.51
2019-03-17T01:10:40.254Z,995.53
2019-03-17T01:11:40.249Z,995.48
2019-03-17T01:12:40.234Z,995.47
2019-03-17T01:13:40.226Z,995.43
2019-03-17T01:14:40.221Z,995.39
2019-03-17T01:15:40.217Z,995.39
2019-03-17T01:16:40.205Z,995.43
2019-03-17T01:17:40.208Z,995.34
2019-03-17T01:18:40.193Z,995.31
2019-03-17T01:19:40.182Z,995.30
2019-03-17T01:20:40.173Z,995.26
2019-03-17T01:21:40.166Z,995.21
2019-03-17T01:22:40.160Z,995.21
2019-03-17T01:23:40.155Z,995.19
2019-03-17T01:24:40.144Z,995.11
2019-03-17T01:25:40.131Z,995.06
2019-03-17T01:26:40.126Z,995.01
2019-03-17T01:27:40.123Z,995.01
2019-03-17T01:28:40.119Z,994.97
2019-03-17T01:29:40.112Z,995.01
2019-03-17T01:30:40.101Z,994.99
2019-03-17T01:31:40.091Z,994.98
2019-03-17T01:32:40.082Z,994.99
2019-03-17T01:33:40.074Z,994.94
2019-03-17T01:34:40.081Z,994.92
2019-03-17T01:35:40.063Z,994.94
2019-03-17T01:36:40.055Z,994.92
2019-03-17T01:37:40.048Z,994.90
2019-03-17T01:38:40.039Z,994.95
2019-03-17T01:39:40.025Z,994.92
2019-03-17T01:40:40.016Z,994.94
2019-03-17T01:41:40.029Z,994.96
2019-03-17T01:42:40.007Z,994.94
2019-03-17T01:43:39.996Z,995.00
2019-03-17T01:44:39.985Z,994.94
2019-03-17T01:45:39.981Z,994.86
2019-03-17T01:46:39.975Z,995.00
2019-03-17T01:47:39.970Z,995.04
2019-03-17T01:48:39.963Z,994.99
2019-03-17T01:49:39.958Z,995.01
2019-03-17T01:50:39.947Z,994.93
2019-03-17T01:51:39.935Z,994.99
2019-03-17T01:52:39.926Z,994.88
2019-03-17T01:53:39.915Z,994.95
2019-03-17T01:54:39.910Z,995.01
2019-03-17T01:55:39.909Z,995.00
2019-03-17T01:56:39.899Z,994.97
2019-03-17T01:57:39.883Z,994.95
2019-03-17T01:58:39.879Z,994.90
2019-03-17T01:59:39.874Z,994.91
2019-03-17T02:00:39.869Z,995.02
2019-03-17T02:01:39.859Z,994.93
2019-03-17T02:02:39.853Z,994.96
2019-03-17T02:03:39.842Z,994.94
2019-03-17T02:04:39.836Z,994.90
2019-03-17T02:05:39.824Z,994.95
2019-03-17T02:06:39.817Z,994.93
2019-03-17T02:07:39.814Z,994.91
2019-03-17T02:08:39.806Z,994.94
2019-03-17T02:09:39.796Z,994.84
2019-03-17T02:10:39.788Z,994.86
2019-03-17T02:11:39.777Z,994.91
2019-03-17T02:12:39.767Z,994.87
2019-03-17T02:13:39.766Z,994.81
2019-03-17T02:14:39.760Z,994.83
2019-03-17T02:15:39.745Z,994.77
2019-03-17T02:16:39.735Z,994.79
2019-03-17T02:17:39.732Z,994.74
2019-03-17T02:18:39.723Z,994.73
2019-03-17T02:19:39.721Z,994.75
2019-03-17T02:20:39.711Z,994.72
2019-03-17T02:21:39.703Z,994.60
2019-03-17T02:22:39.701Z,994.63
2019-03-17T02:23:39.684Z,994.64
2019-03-17T02:24:39.676Z,994.62
2019-03-17T02:25:39.667Z,994.59
2019-03-17T02:26:39.657Z,994.62
2019-03-17T02:27:39.656Z,994.58
2019-03-17T02:28:39.649Z,994.52
2019-03-17T02:29:39.636Z,994.55
2019-03-17T02:30:39.632Z,994.56
2019-03-17T02:31:39.627Z,994.53
2019-03-17T02:32:39.627Z,994.49
2019-03-17T02:33:39.612Z,994.51
2019-03-17T02:34:39.630Z,994.49
2019-03-17T02:35:40.138Z,994.41
2019-03-17T02:36:39.585Z,994.38
2019-03-17T02:37:39.578Z,994.41
2019-03-17T02:38:39.567Z,994.34
2019-03-17T02:39:39.574Z,994.28
2019-03-17T02:40:39.555Z,994.30
2019-03-17T02:41:39.549Z,994.33
2019-03-17T02:42:39.541Z,994.31
2019-03-17T02:43:39.535Z,994.32
2019-03-17T02:44:39.517Z,994.31
2019-03-17T02:45:39.515Z,994.25
2019-03-17T02:46:39.509Z,994.28
2019-03-17T02:47:39.497Z,994.37
2019-03-17T02:48:39.516Z,994.25
2019-03-17T02:49:39.480Z,994.20
2019-03-17T02:50:39.476Z,994.08
2019-03-17T02:51:39.471Z,994.20
2019-03-17T02:52:39.463Z,994.15
2019-03-17T02:53:39.457Z,994.16
2019-03-17T02:54:39.447Z,994.10
2019-03-17T02:55:39.437Z,994.19
2019-03-17T02:56:39.431Z,994.11
2019-03-17T02:57:39.416Z,994.04
2019-03-17T02:58:39.421Z,994.10
2019-03-17T02:59:39.406Z,994.08
2019-03-17T03:00:39.398Z,994.08
2019-03-17T03:01:39.386Z,994.06
2019-03-17T03:02:39.376Z,994.03
2019-03-17T03:03:39.376Z,993.94
2019-03-17T03:04:39.365Z,994.14
2019-03-17T03:05:53.844Z,994.12
2019-03-17T03:06:39.354Z,993.97
2019-03-17T03:07:39.347Z,994.03
2019-03-17T03:08:39.335Z,993.96
2019-03-17T03:09:39.323Z,994.03
2019-03-17T03:10:39.317Z,994.05
2019-03-17T03:11:39.314Z,994.00
2019-03-17T03:12:39.307Z,993.91
2019-03-17T03:13:39.294Z,993.89
2019-03-17T03:14:39.286Z,993.91
2019-03-17T03:15:39.274Z,993.88
2019-03-17T03:16:39.269Z,993.85
2019-03-17T03:17:39.271Z,993.86
2019-03-17T03:18:39.257Z,993.85
2019-03-17T03:19:39.243Z,993.88
2019-03-17T03:20:39.240Z,993.90
2019-03-17T03:21:39.230Z,993.82
2019-03-17T03:22:39.221Z,993.87
2019-03-17T03:23:39.225Z,993.81
2019-03-17T03:24:39.212Z,993.79
2019-03-17T03:25:39.198Z,993.79
2019-03-17T03:26:39.192Z,993.75
2019-03-17T03:27:39.183Z,993.81
2019-03-17T03:28:39.172Z,993.79
2019-03-17T03:29:39.173Z,993.76
2019-03-17T03:30:39.165Z,993.70
2019-03-17T03:31:39.167Z,993.72
2019-03-17T03:32:39.157Z,993.75
2019-03-17T03:33:39.134Z,993.76
2019-03-17T03:34:39.229Z,993.74
2019-03-17T03:35:39.125Z,993.80
2019-03-17T03:36:39.115Z,993.79
2019-03-17T03:37:39.103Z,993.82
2019-03-17T03:38:39.096Z,993.77
2019-03-17T03:39:39.084Z,993.72
2019-03-17T03:40:39.077Z,993.80
2019-03-17T03:41:39.067Z,993.82
2019-03-17T03:42:39.067Z,993.89
2019-03-17T03:43:39.059Z,993.78
2019-03-17T03:44:39.047Z,993.86
2019-03-17T03:45:39.041Z,993.78
2019-03-17T03:46:39.036Z,993.75
2019-03-17T03:47:39.029Z,993.76
2019-03-17T03:48:39.021Z,993.76
2019-03-17T03:49:39.011Z,993.75
2019-03-17T03:50:39.002Z,993.80
2019-03-17T03:51:38.994Z,993.78
2019-03-17T03:52:38.987Z,993.81
2019-03-17T03:53:38.973Z,993.84
2019-03-17T03:54:38.969Z,993.80
2019-03-17T03:55:42.157Z,993.68
2019-03-17T03:56:38.953Z,993.80
2019-03-17T03:57:38.975Z,993.68
2019-03-17T03:58:38.936Z,993.79
2019-03-17T03:59:38.926Z,993.75
2019-03-17T04:00:38.914Z,993.76
2019-03-17T04:01:38.910Z,993.71
2019-03-17T04:02:38.902Z,993.78
2019-03-17T04:03:38.919Z,993.68
2019-03-17T04:04:38.895Z,993.67
2019-03-17T04:05:38.878Z,993.68
2019-03-17T04:06:38.870Z,993.75
2019-03-17T04:07:38.866Z,993.70
2019-03-17T04:08:38.859Z,993.58
2019-03-17T04:09:38.849Z,993.67
2019-03-17T04:10:38.839Z,993.64
2019-03-17T04:11:38.826Z,993.61
2019-03-17T04:12:38.818Z,993.64
2019-03-17T04:13:38.808Z,993.61
2019-03-17T04:14:38.870Z,993.62
2019-03-17T04:15:38.816Z,993.80
2019-03-17T04:16:38.788Z,993.72
2019-03-17T04:17:38.785Z,993.61
2019-03-17T04:18:38.776Z,993.63
2019-03-17T04:19:38.762Z,993.64
2019-03-17T04:20:38.754Z,993.61
2019-03-17T04:21:38.751Z,993.62
2019-03-17T04:22:38.747Z,993.66
2019-03-17T04:23:38.729Z,993.63
2019-03-17T04:24:38.727Z,993.74
2019-03-17T04:25:38.712Z,993.68
2019-03-17T04:26:38.701Z,993.69
2019-03-17T04:27:38.700Z,993.74
2019-03-17T04:28:38.691Z,993.62
2019-03-17T04:29:38.684Z,993.59
2019-03-17T04:30:38.677Z,993.63
2019-03-17T04:31:38.664Z,993.54
2019-03-17T04:32:38.655Z,993.50
2019-03-17T04:33:38.647Z,993.59
2019-03-17T04:34:38.640Z,993.57
2019-03-17T04:35:38.633Z,993.64
2019-03-17T04:36:40.364Z,993.65
2019-03-17T04:37:38.612Z,993.55
2019-03-17T04:38:38.603Z,993.60
2019-03-17T04:39:38.602Z,993.53
2019-03-17T04:40:38.592Z,993.62
2019-03-17T04:41:38.592Z,993.59
2019-03-17T04:42:38.580Z,993.59
2019-03-17T04:43:38.565Z,993.69
2019-03-17T04:44:38.558Z,993.72
2019-03-17T04:45:38.548Z,993.63
2019-03-17T04:46:38.541Z,993.71
2019-03-17T04:47:38.537Z,993.70
2019-03-17T04:48:38.555Z,993.70
2019-03-17T04:49:38.518Z,993.63
2019-03-17T04:50:38.509Z,993.73
2019-03-17T04:51:38.495Z,993.66
2019-03-17T04:52:38.487Z,993.63
2019-03-17T04:53:38.487Z,993.62
2019-03-17T04:54:38.477Z,993.63
2019-03-17T04:55:38.463Z,993.75
2019-03-17T04:56:38.455Z,993.77
2019-03-17T04:57:38.450Z,993.76
2019-03-17T04:58:38.443Z,993.70
2019-03-17T04:59:38.438Z,993.73
2019-03-17T05:00:38.428Z,993.77
2019-03-17T05:01:38.419Z,993.68
2019-03-17T05:02:38.413Z,993.78
2019-03-17T05:03:38.399Z,993.75
2019-03-17T05:04:38.390Z,993.75
2019-03-17T05:05:38.378Z,993.86
2019-03-17T05:06:38.371Z,993.81
2019-03-17T05:07:38.369Z,993.75
2019-03-17T05:08:38.358Z,993.75
2019-03-17T05:09:38.344Z,993.79
2019-03-17T05:10:38.337Z,993.88
2019-03-17T05:11:38.332Z,993.70
2019-03-17T05:12:38.324Z,993.87
2019-03-17T05:13:38.317Z,993.79
2019-03-17T05:14:38.309Z,993.72
2019-03-17T05:15:38.297Z,993.78
2019-03-17T05:16:38.286Z,993.76
2019-03-17T05:17:38.278Z,993.74
2019-03-17T05:18:38.270Z,993.71
2019-03-17T05:19:38.269Z,993.64
2019-03-17T05:20:38.257Z,993.60
2019-03-17T05:21:38.245Z,993.69
2019-03-17T05:22:38.237Z,993.59
2019-03-17T05:23:38.224Z,993.65
2019-03-17T05:24:38.214Z,993.66
2019-03-17T05:25:38.211Z,993.66
2019-03-17T05:26:38.202Z,993.67
2019-03-17T05:27:38.187Z,993.59
2019-03-17T05:28:38.179Z,993.61
2019-03-17T05:29:38.171Z,993.65
2019-03-17T05:30:38.163Z,993.60
2019-03-17T05:31:38.159Z,993.68
2019-03-17T05:32:38.150Z,993.65
2019-03-17T05:33:38.137Z,993.62
2019-03-17T05:34:38.129Z,993.70
2019-03-17T05:35:38.115Z,993.66
2019-03-17T05:36:38.106Z,993.65
2019-03-17T05:37:38.099Z,993.70
2019-03-17T05:38:38.092Z,993.61
2019-03-17T05:39:38.087Z,993.62
2019-03-17T05:40:38.078Z,993.61
2019-03-17T05:41:38.065Z,993.66
2019-03-17T05:42:40.434Z,993.72
2019-03-17T05:43:38.052Z,993.68
2019-03-17T05:44:38.044Z,993.72
2019-03-17T05:45:38.031Z,993.66
2019-03-17T05:46:38.026Z,993.68
2019-03-17T05:47:38.008Z,993.68
2019-03-17T05:48:38.000Z,993.78
2019-03-17T05:49:37.988Z,993.72
2019-03-17T05:50:37.981Z,993.78
2019-03-17T05:51:37.976Z,993.71
2019-03-17T05:52:37.967Z,993.74
2019-03-17T05:53:40.256Z,993.72
2019-03-17T05:54:37.954Z,993.70
2019-03-17T05:55:37.939Z,993.83
2019-03-17T05:56:37.929Z,993.70
2019-03-17T05:57:37.925Z,993.73
2019-03-17T05:58:37.915Z,993.73
2019-03-17T05:59:37.903Z,993.85
2019-03-17T06:00:37.894Z,993.85
2019-03-17T06:01:37.882Z,993.83
2019-03-17T06:02:37.873Z,993.84
2019-03-17T06:03:37.869Z,993.86
2019-03-17T06:04:37.932Z,993.84
2019-03-17T06:05:37.851Z,994.01
2019-03-17T06:06:37.843Z,993.92
2019-03-17T06:07:37.847Z,993.94
2019-03-17T06:08:37.818Z,993.94
2019-03-17T06:09:37.815Z,993.89
2019-03-17T06:10:37.804Z,994.00
2019-03-17T06:11:37.799Z,993.95
2019-03-17T06:12:37.788Z,993.98
2019-03-17T06:13:37.775Z,994.00
2019-03-17T06:14:37.768Z,993.97
2019-03-17T06:15:37.762Z,993.97
2019-03-17T06:16:37.752Z,994.13
2019-03-17T06:17:37.748Z,994.05
2019-03-17T06:18:37.732Z,994.03
2019-03-17T06:19:37.719Z,994.01
2019-03-17T06:20:37.710Z,994.10
2019-03-17T06:21:37.700Z,994.08
2019-03-17T06:22:37.690Z,993.99
2019-03-17T06:23:37.690Z,994.01
2019-03-17T06:24:37.678Z,994.03
2019-03-17T06:25:37.672Z,994.01
2019-03-17T06:26:37.663Z,994.09
2019-03-17T06:27:37.648Z,994.10
2019-03-17T06:28:37.640Z,994.14
2019-03-17T06:29:37.634Z,994.14
2019-03-17T06:30:37.635Z,994.12
2019-03-17T06:31:37.613Z,994.07
2019-03-17T06:32:37.602Z,994.05
2019-03-17T06:33:37.653Z,994.13
2019-03-17T06:34:37.587Z,994.09
2019-03-17T06:35:37.576Z,994.16
2019-03-17T06:36:37.568Z,994.02
2019-03-17T06:37:37.558Z,994.09
2019-03-17T06:38:37.548Z,994.07
2019-03-17T06:39:37.544Z,994.10
2019-03-17T06:40:37.533Z,994.17
2019-03-17T06:41:37.526Z,994.11
2019-03-17T06:42:37.514Z,994.11
2019-03-17T06:43:37.499Z,994.15
2019-03-17T06:44:37.491Z,994.17
2019-03-17T06:45:37.486Z,994.19
2019-03-17T06:46:37.477Z,994.21
2019-03-17T06:47:37.464Z,994.23
2019-03-17T06:48:37.456Z,994.29
2019-03-17T06:49:37.446Z,994.33
2019-03-17T06:50:37.438Z,994.34
2019-03-17T06:51:37.435Z,994.42
2019-03-17T06:52:37.424Z,994.36
2019-03-17T06:53:37.415Z,994.26
2019-03-17T06:54:37.407Z,994.42
2019-03-17T06:55:37.391Z,994.32
2019-03-17T06:56:37.384Z,994.28
2019-03-17T06:57:37.371Z,994.34
2019-03-17T06:58:37.361Z,994.40
2019-03-17T06:59:37.357Z,994.48
2019-03-17T07:00:37.348Z,994.50
2019-03-17T07:01:37.334Z,994.49
2019-03-17T07:02:37.326Z,994.55
2019-03-17T07:03:37.320Z,994.54
2019-03-17T07:04:37.312Z,994.51
2019-03-17T07:05:37.305Z,994.55
2019-03-17T07:06:37.295Z,994.63
2019-03-17T07:07:43.860Z,994.59
2019-03-17T07:08:37.273Z,994.59
2019-03-17T07:09:37.264Z,994.62
2019-03-17T07:10:37.255Z,994.59
2019-03-17T07:11:37.253Z,994.61
2019-03-17T07:12:37.242Z,994.62
2019-03-17T07:13:37.230Z,994.74
2019-03-17T07:14:37.220Z,994.80
2019-03-17T07:15:37.209Z,994.74
2019-03-17T07:16:37.197Z,994.79
2019-03-17T07:17:37.194Z,994.86
2019-03-17T07:18:37.186Z,994.84
2019-03-17T07:19:37.174Z,994.91
2019-03-17T07:20:37.167Z,994.96
2019-03-17T07:21:37.157Z,994.97
2019-03-17T07:22:37.148Z,994.98
2019-03-17T07:23:37.143Z,994.99
2019-03-17T07:24:37.134Z,995.08
2019-03-17T07:25:37.126Z,995.07
2019-03-17T07:26:37.116Z,995.13
2019-03-17T07:27:37.104Z,995.07
2019-03-17T07:28:37.093Z,995.10
2019-03-17T07:29:37.081Z,995.13
2019-03-17T07:30:37.073Z,995.15
2019-03-17T07:31:37.070Z,995.13
2019-03-17T07:32:37.062Z,995.13
2019-03-17T07:33:37.057Z,995.12
2019-03-17T07:34:37.041Z,995.10
2019-03-17T07:35:37.036Z,995.16
2019-03-17T07:36:37.024Z,995.18
2019-03-17T07:37:37.019Z,995.23
2019-03-17T07:38:37.014Z,995.27
2019-03-17T07:39:36.998Z,995.32
2019-03-17T07:40:36.988Z,995.25
2019-03-17T07:41:36.979Z,995.40
2019-03-17T07:42:36.970Z,995.38
2019-03-17T07:43:36.967Z,995.47
2019-03-17T07:44:36.955Z,995.49
2019-03-17T07:45:36.950Z,995.45
2019-03-17T07:46:36.944Z,995.53
2019-03-17T07:47:36.930Z,995.58
2019-03-17T07:48:36.921Z,995.65
2019-03-17T07:49:36.917Z,995.68
2019-03-17T07:50:36.907Z,995.77
2019-03-17T07:51:36.895Z,995.97
2019-03-17T07:52:36.888Z,996.01
2019-03-17T07:53:36.877Z,996.00
2019-03-17T07:54:36.867Z,996.03
2019-03-17T07:55:36.861Z,995.97
2019-03-17T07:56:36.857Z,995.95
2019-03-17T07:57:36.844Z,995.89
2019-03-17T07:58:36.837Z,995.88
2019-03-17T07:59:36.821Z,995.85
2019-03-17T08:00:36.813Z,995.88
2019-03-17T08:01:36.808Z,995.85
2019-03-17T08:02:36.798Z,995.83
2019-03-17T08:03:36.795Z,995.90
2019-03-17T08:04:42.346Z,995.97
2019-03-17T08:05:36.777Z,995.95
2019-03-17T08:06:36.763Z,995.93
2019-03-17T08:07:36.759Z,995.95
2019-03-17T08:08:36.781Z,995.98
2019-03-17T08:09:36.738Z,996.05
2019-03-17T08:10:36.729Z,996.11
2019-03-17T08:11:36.716Z,996.07
2019-03-17T08:12:36.705Z,996.15
2019-03-17T08:13:36.696Z,996.14
2019-03-17T08:14:36.689Z,996.17
2019-03-17T08:15:36.685Z,996.21
2019-03-17T08:16:36.676Z,996.29
2019-03-17T08:17:36.669Z,996.24
2019-03-17T08:18:36.660Z,996.31
2019-03-17T08:19:36.650Z,996.23
2019-03-17T08:20:36.638Z,996.18
2019-03-17T08:21:36.633Z,996.21
2019-03-17T08:22:36.625Z,996.15
2019-03-17T08:23:36.611Z,996.11
2019-03-17T08:24:36.602Z,996.20
2019-03-17T08:25:36.601Z,996.24
2019-03-17T08:26:36.583Z,996.26
2019-03-17T08:27:36.655Z,996.31
2019-03-17T08:28:36.587Z,996.32
2019-03-17T08:29:36.562Z,996.31
2019-03-17T08:30:36.613Z,996.35
2019-03-17T08:31:36.540Z,996.38
2019-03-17T08:32:36.536Z,996.46
2019-03-17T08:33:36.526Z,996.47
2019-03-17T08:34:36.518Z,996.43
2019-03-17T08:35:36.514Z,996.37
2019-03-17T08:36:36.505Z,996.45
2019-03-17T08:37:36.492Z,996.47
2019-03-17T08:38:36.485Z,996.42
2019-03-17T08:39:36.482Z,996.49
2019-03-17T08:40:36.473Z,996.51
2019-03-17T08:41:37.750Z,996.51
2019-03-17T08:42:36.455Z,996.55
2019-03-17T08:43:36.443Z,996.55
2019-03-17T08:44:36.434Z,996.56
2019-03-17T08:45:36.427Z,996.64
2019-03-17T08:46:36.419Z,996.67
2019-03-17T08:47:36.416Z,996.65
2019-03-17T08:48:36.407Z,996.74
2019-03-17T08:49:36.398Z,996.71
2019-03-17T08:50:36.390Z,996.80
2019-03-17T08:51:36.464Z,996.70
2019-03-17T08:52:36.369Z,996.72
2019-03-17T08:53:36.369Z,996.69
2019-03-17T08:54:36.368Z,996.70
2019-03-17T08:55:36.346Z,996.76
2019-03-17T08:56:36.339Z,996.77
2019-03-17T08:57:36.335Z,996.84
2019-03-17T08:58:36.327Z,996.84
2019-03-17T08:59:36.325Z,996.86
2019-03-17T09:00:36.316Z,996.91
2019-03-17T09:01:36.315Z,996.91
2019-03-17T09:02:36.302Z,996.90
2019-03-17T09:03:36.293Z,996.98
2019-03-17T09:04:36.284Z,996.90
2019-03-17T09:05:36.279Z,996.99
2019-03-17T09:06:36.265Z,996.95
2019-03-17T09:07:36.281Z,996.94
2019-03-17T09:08:36.260Z,996.91
2019-03-17T09:09:36.244Z,996.82
2019-03-17T09:10:36.236Z,996.83
2019-03-17T09:11:36.235Z,996.84
2019-03-17T09:12:36.230Z,996.88
2019-03-17T09:13:36.228Z,996.91
2019-03-17T09:14:36.222Z,997.02
2019-03-17T09:15:36.212Z,997.03
2019-03-17T09:16:36.204Z,997.07
2019-03-17T09:17:36.192Z,997.03
2019-03-17T09:18:36.185Z,997.03
2019-03-17T09:19:36.183Z,996.98
2019-03-17T09:20:36.175Z,996.99
2019-03-17T09:21:36.165Z,996.94
2019-03-17T09:22:36.240Z,997.05
2019-03-17T09:23:36.147Z,997.07
2019-03-17T09:24:36.142Z,996.98
2019-03-17T09:25:36.140Z,996.98
2019-03-17T09:26:36.132Z,996.90
2019-03-17T09:27:36.131Z,996.90
2019-03-17T09:28:36.113Z,996.87
2019-03-17T09:29:36.117Z,996.91
2019-03-17T09:30:36.106Z,996.90
2019-03-17T09:31:36.101Z,996.96
2019-03-17T09:32:36.095Z,997.01
2019-03-17T09:33:36.091Z,997.00
2019-03-17T09:34:36.083Z,997.01
2019-03-17T09:35:36.072Z,997.05
2019-03-17T09:36:36.068Z,997.08
2019-03-17T09:37:36.056Z,997.09
2019-03-17T09:38:46.613Z,997.08
2019-03-17T09:39:36.086Z,997.11
2019-03-17T09:40:36.042Z,997.09
2019-03-17T09:41:36.031Z,997.15
2019-03-17T09:42:36.025Z,997.13
2019-03-17T09:43:36.024Z,997.16
2019-03-17T09:44:36.017Z,997.16
2019-03-17T09:45:36.013Z,997.22
2019-03-17T09:46:36.007Z,997.07
2019-03-17T09:47:35.996Z,997.09
2019-03-17T09:48:35.989Z,997.04
2019-03-17T09:49:35.980Z,997.10
2019-03-17T09:50:35.976Z,997.10
2019-03-17T09:51:35.974Z,997.16
2019-03-17T09:52:35.967Z,997.12
2019-03-17T09:53:35.973Z,997.18
2019-03-17T09:54:35.958Z,997.28
2019-03-17T09:55:35.948Z,997.23
2019-03-17T09:56:35.941Z,997.28
2019-03-17T09:57:35.941Z,997.15
2019-03-17T09:58:35.935Z,997.29
2019-03-17T09:59:35.925Z,997.27
2019-03-17T10:00:35.925Z,997.35
2019-03-17T10:01:35.911Z,997.39
2019-03-17T10:02:35.904Z,997.34
2019-03-17T10:03:35.905Z,997.40
2019-03-17T10:04:35.897Z,997.39
2019-03-17T10:05:35.892Z,997.42
2019-03-17T10:06:35.887Z,997.40
2019-03-17T10:07:35.878Z,997.41
2019-03-17T10:08:35.870Z,997.41
2019-03-17T10:09:35.867Z,997.38
2019-03-17T10:10:35.864Z,997.46
2019-03-17T10:11:35.864Z,997.47
2019-03-17T10:12:35.855Z,997.52
2019-03-17T10:13:35.845Z,997.50
2019-03-17T10:14:35.839Z,997.43
2019-03-17T10:15:35.838Z,997.51
2019-03-17T10:16:35.831Z,997.45
2019-03-17T10:17:35.841Z,997.46
2019-03-17T10:18:35.818Z,997.48
2019-03-17T10:19:35.809Z,997.53
2019-03-17T10:20:35.800Z,997.53
2019-03-17T10:21:35.797Z,997.47
2019-03-17T10:22:35.789Z,997.50
2019-03-17T10:23:35.789Z,997.55
2019-03-17T10:24:35.782Z,997.62
2019-03-17T10:25:35.778Z,997.56
2019-03-17T10:26:35.774Z,997.57
2019-03-17T10:27:35.763Z,997.58
2019-03-17T10:28:35.757Z,997.73
2019-03-17T10:29:35.755Z,997.64
2019-03-17T10:30:35.749Z,997.68
2019-03-17T10:31:35.739Z,997.66
2019-03-17T10:32:35.733Z,997.70
2019-03-17T10:33:35.725Z,997.92
2019-03-17T10:34:35.721Z,997.84
2019-03-17T10:35:35.719Z,997.91
2019-03-17T10:36:35.715Z,997.91
2019-03-17T10:37:35.709Z,998.00
2019-03-17T10:38:35.706Z,997.82
2019-03-17T10:39:35.697Z,997.99
2019-03-17T10:40:35.694Z,998.03
2019-03-17T10:41:35.693Z,998.02
2019-03-17T10:42:35.693Z,998.04
2019-03-17T10:43:35.691Z,998.05
2019-03-17T10:44:35.685Z,998.02
2019-03-17T10:45:35.676Z,998.02
2019-03-17T10:46:35.675Z,998.02
2019-03-17T10:47:35.673Z,998.03
2019-03-17T10:48:35.668Z,997.99
2019-03-17T10:49:35.662Z,998.03
2019-03-17T10:50:48.789Z,998.10
2019-03-17T10:51:35.650Z,998.06
2019-03-17T10:52:35.642Z,998.07
2019-03-17T10:53:35.637Z,998.15
2019-03-17T10:54:35.636Z,998.22
2019-03-17T10:55:35.635Z,998.23
2019-03-17T10:56:35.630Z,998.22
2019-03-17T10:57:35.628Z,998.28
2019-03-17T10:58:35.625Z,998.29
2019-03-17T10:59:35.617Z,998.16
2019-03-17T11:00:35.612Z,998.41
2019-03-17T11:01:35.615Z,998.41
2019-03-17T11:02:35.612Z,998.28
2019-03-17T11:03:35.606Z,998.31
2019-03-17T11:04:35.603Z,998.30
2019-03-17T11:05:35.602Z,998.25
2019-03-17T11:06:35.599Z,998.31
2019-03-17T11:07:35.608Z,998.27
2019-03-17T11:08:35.603Z,998.38
2019-03-17T11:09:35.604Z,998.43
2019-03-17T11:10:35.605Z,998.31
2019-03-17T11:11:35.601Z,998.48
2019-03-17T11:12:35.600Z,998.69
2019-03-17T11:13:35.603Z,998.65
2019-03-17T11:14:35.606Z,998.45
2019-03-17T11:15:35.610Z,998.35
2019-03-17T11:16:35.612Z,998.36
2019-03-17T11:17:35.609Z,998.32
2019-03-17T11:18:35.611Z,998.25
2019-03-17T11:19:35.618Z,998.30
2019-03-17T11:20:35.617Z,998.60
2019-03-17T11:21:35.617Z,998.43
2019-03-17T11:22:35.623Z,998.43
2019-03-17T11:23:35.617Z,998.29
2019-03-17T11:24:35.616Z,998.37
2019-03-17T11:25:35.620Z,998.43
2019-03-17T11:26:35.617Z,998.55
2019-03-17T11:27:35.624Z,998.55
2019-03-17T11:28:35.622Z,998.54
2019-03-17T11:29:35.624Z,998.55
2019-03-17T11:30:35.625Z,998.52
2019-03-17T11:31:35.621Z,998.50
2019-03-17T11:32:35.619Z,998.68
2019-03-17T11:33:35.624Z,998.60
2019-03-17T11:34:35.620Z,998.66
2019-03-17T11:35:35.618Z,998.60
2019-03-17T11:36:35.615Z,998.63
2019-03-17T11:37:35.608Z,998.77
2019-03-17T11:38:35.609Z,998.70
2019-03-17T11:39:38.026Z,998.75
2019-03-17T11:40:35.608Z,998.77
2019-03-17T11:41:35.603Z,998.74
2019-03-17T11:42:35.602Z,998.74
2019-03-17T11:43:35.594Z,998.72
2019-03-17T11:44:35.592Z,998.69
2019-03-17T11:45:35.592Z,998.68
2019-03-17T11:46:35.589Z,998.76
2019-03-17T11:47:35.598Z,998.71
2019-03-17T11:48:35.586Z,998.81
2019-03-17T11:49:35.580Z,998.79
2019-03-17T11:50:35.577Z,998.76
2019-03-17T11:51:35.576Z,998.83
2019-03-17T11:52:35.574Z,998.80
2019-03-17T11:53:35.569Z,998.74
2019-03-17T11:54:35.565Z,998.65
2019-03-17T11:55:35.567Z,998.68
2019-03-17T11:56:35.553Z,998.67
2019-03-17T11:57:35.552Z,998.73
2019-03-17T11:58:35.550Z,998.74
2019-03-17T11:59:35.550Z,998.93
2019-03-17T12:00:35.545Z,998.80
2019-03-17T12:01:35.541Z,998.85
2019-03-17T12:02:35.538Z,998.85
2019-03-17T12:03:35.529Z,998.78
2019-03-17T12:04:35.526Z,998.90
2019-03-17T12:05:35.526Z,998.83
2019-03-17T12:06:35.523Z,998.79
2019-03-17T12:07:35.512Z,998.81
2019-03-17T12:08:35.508Z,998.82
2019-03-17T12:09:35.508Z,998.87
2019-03-17T12:10:35.506Z,998.97
2019-03-17T12:11:35.504Z,998.90
2019-03-17T12:12:35.499Z,998.95
2019-03-17T12:13:35.496Z,998.89
2019-03-17T12:14:35.491Z,999.07
2019-03-17T12:15:35.485Z,999.00
2019-03-17T12:16:35.477Z,999.03
2019-03-17T12:17:35.471Z,998.93
2019-03-17T12:18:35.469Z,998.94
2019-03-17T12:19:35.468Z,998.96
2019-03-17T12:20:35.465Z,998.95
2019-03-17T12:21:35.453Z,999.03
2019-03-17T12:22:35.451Z,999.11
2019-03-17T12:23:35.451Z,999.08
2019-03-17T12:24:35.444Z,999.12
2019-03-17T12:25:35.442Z,999.09
2019-03-17T12:26:35.439Z,999.18
2019-03-17T12:27:35.430Z,999.23
2019-03-17T12:28:35.426Z,999.20